Time;durP1;ratioP1;P1;durP2;ratioP2;P2;SDS_P1;SDS_P2;PMS_P1;PMS_P2;Temp;Humidity;BMP_temperature;BMP_pressure;BME280_temperature;BME280_humidity;BME280_pressure;Samples;Min_cycle;Max_cycle;Signal;HPM_P1;HPM_P2
2022/05/19 00:00:27;;;;;;;3.65;2.20;;;;;;;14.75;nan;102362.97;5088673;28;20073;-83
2022/05/19 00:02:52;;;;;;;5.15;2.45;;;;;;;14.71;nan;102356.38;5080397;28;20107;-83
2022/05/19 00:05:18;;;;;;;4.13;1.90;;;;;;;14.75;nan;102357.59;5084193;28;20025;-82
2022/05/19 00:07:43;;;;;;;4.43;2.17;;;;;;;14.82;nan;102358.25;5090081;28;20024;-82
2022/05/19 00:10:09;;;;;;;3.55;1.98;;;;;;;14.87;nan;102362.94;5087326;28;20031;-83
2022/05/19 00:12:35;;;;;;;4.03;2.30;;;;;;;14.91;nan;102363.31;5080552;28;20060;-83
2022/05/19 00:15:01;;;;;;;4.03;2.13;;;;;;;14.87;nan;102375.63;5089064;28;20024;-83
2022/05/19 00:17:27;;;;;;;11.05;1.90;;;;;;;14.86;nan;102363.19;5084719;28;20390;-82
2022/05/19 00:19:53;;;;;;;3.90;1.80;;;;;;;14.87;nan;102364.81;5094410;28;20032;-83
2022/05/19 00:22:18;;;;;;;7.30;2.22;;;;;;;14.90;nan;102367.91;5085411;28;20033;-83
2022/05/19 00:24:44;;;;;;;2.75;1.90;;;;;;;14.92;nan;102362.25;5089353;28;20024;-83
2022/05/19 00:27:10;;;;;;;4.68;2.00;;;;;;;14.95;nan;102361.78;5082252;28;20096;-84
2022/05/19 00:29:35;;;;;;;3.30;1.52;;;;;;;14.95;nan;102356.38;5080850;28;20020;-83
2022/05/19 00:32:01;;;;;;;4.38;2.03;;;;;;;14.95;nan;102350.97;5085286;28;20034;-83
2022/05/19 00:34:27;;;;;;;4.57;1.75;;;;;;;14.95;nan;102345.59;5087097;28;20086;-82
2022/05/19 00:37:02;;;;;;;4.18;1.70;;;;;;;14.87;nan;102349.44;5084161;28;20028;-83
2022/05/19 00:39:29;;;;;;;6.88;2.03;;;;;;;14.87;nan;102345.94;5072402;28;20028;-83
2022/05/19 00:44:40;;;;;;;2.45;1.80;;;;;;;14.74;nan;102341.63;5086405;28;20109;-83
2022/05/19 00:47:13;;;;;;;4.32;1.33;;;;;;;14.73;nan;102348.09;5092232;28;20036;-83
2022/05/19 00:49:42;;;;;;;5.50;2.00;;;;;;;14.60;nan;102342.94;5086171;28;20028;-82
2022/05/19 00:52:50;;;;;;;4.00;1.67;;;;;;;14.58;nan;102335.09;5090866;28;20020;-83
2022/05/19 00:55:22;;;;;;;3.53;2.22;;;;;;;14.48;nan;102340.25;5046312;28;20048;-83
2022/05/19 00:58:05;;;;;;;7.47;1.55;;;;;;;14.40;nan;102337.88;5088742;28;20444;-82
2022/05/19 01:00:31;;;;;;;2.75;1.63;;;;;;;14.35;nan;102348.53;5091042;28;20031;-83
2022/05/19 01:02:59;;;;;;;4.35;2.00;;;;;;;14.33;nan;102340.66;5089833;28;20023;-83
2022/05/19 01:05:33;;;;;;;8.30;1.40;;;;;;;14.32;nan;102340.91;5088330;28;20016;-83
2022/05/19 01:08:08;;;;;;;2.63;1.67;;;;;;;14.25;nan;102340.22;5085813;28;20031;-82
2022/05/19 01:10:35;;;;;;;2.65;1.55;;;;;;;14.17;nan;102339.47;5084985;28;20036;-82
2022/05/19 01:13:01;;;;;;;3.13;1.80;;;;;;;14.14;nan;102342.66;5082693;28;20024;-83
2022/05/19 01:15:27;;;;;;;4.65;1.77;;;;;;;14.11;nan;102336.91;5082933;28;20039;-82
2022/05/19 01:17:53;;;;;;;1.95;1.60;;;;;;;14.08;nan;102335.50;5089698;28;20022;-83
2022/05/19 01:20:22;;;;;;;5.88;1.98;;;;;;;14.06;nan;102337.63;5082200;28;20087;-83
2022/05/19 01:23:06;;;;;;;3.45;1.58;;;;;;;14.00;nan;102335.84;5089319;28;20056;-82
2022/05/19 01:25:53;;;;;;;3.25;1.70;;;;;;;13.90;nan;102333.72;5088910;28;20035;-82
2022/05/19 01:28:19;;;;;;;2.60;1.83;;;;;;;13.88;nan;102329.63;5086301;28;20111;-82
2022/05/19 01:30:45;;;;;;;5.15;1.80;;;;;;;13.87;nan;102330.69;5086646;28;20429;-82
2022/05/19 01:33:10;;;;;;;1.95;1.60;;;;;;;13.80;nan;102332.63;5089451;28;20031;-82
2022/05/19 01:35:36;;;;;;;5.82;1.75;;;;;;;13.81;nan;102328.88;5086120;28;20049;-82
2022/05/19 01:38:08;;;;;;;3.10;1.73;;;;;;;13.81;nan;102326.19;5081992;28;20028;-82
2022/05/19 01:41:10;;;;;;;2.95;1.58;;;;;;;13.75;nan;102335.22;5083762;28;20389;-82
2022/05/19 01:43:54;;;;;;;5.82;1.80;;;;;;;13.78;nan;102335.56;5085518;28;20044;-82
2022/05/19 01:46:38;;;;;;;2.47;1.55;;;;;;;13.76;nan;102336.84;5084834;28;20078;-82
2022/05/19 01:49:17;;;;;;;2.53;1.67;;;;;;;13.75;nan;102336.03;5090846;28;20031;-82
2022/05/19 01:51:54;;;;;;;2.45;1.42;;;;;;;13.75;nan;102335.22;5092127;28;20051;-83
2022/05/19 01:54:31;;;;;;;4.95;1.15;;;;;;;13.69;nan;102328.88;5089293;28;20024;-82
2022/05/19 01:57:13;;;;;;;6.70;1.63;;;;;;;13.64;nan;102333.28;5084380;28;20548;-83
2022/05/19 01:59:51;;;;;;;5.75;1.40;;;;;;;13.59;nan;102334.81;5081693;28;20073;-83
2022/05/19 02:02:23;;;;;;;4.70;1.60;;;;;;;13.55;nan;102325.56;5086200;28;20495;-82
2022/05/19 02:04:57;;;;;;;6.70;1.60;;;;;;;13.53;nan;102324.13;5087420;28;20213;-82
2022/05/19 02:07:23;;;;;;;2.42;1.42;;;;;;;13.45;nan;102325.28;5084965;28;20125;-83
2022/05/19 02:09:55;;;;;;;4.32;1.70;;;;;;;13.44;nan;102323.63;5086791;28;20591;-82
2022/05/19 02:12:21;;;;;;;2.20;1.88;;;;;;;13.42;nan;102311.44;5092740;28;20020;-82
2022/05/19 02:15:00;;;;;;;2.33;1.55;;;;;;;13.41;nan;102323.28;5086127;28;20033;-82
2022/05/19 02:17:29;;;;;;;2.63;1.83;;;;;;;13.37;nan;102308.63;5081444;28;20024;-82
2022/05/19 02:19:58;;;;;;;5.60;1.67;;;;;;;13.33;nan;102304.75;5090969;28;20035;-82
2022/05/19 02:22:32;;;;;;;3.10;1.42;;;;;;;13.33;nan;102310.97;5087113;28;20039;-83
2022/05/19 02:25:04;;;;;;;3.97;1.80;;;;;;;13.36;nan;102310.50;5083796;28;20066;-82
2022/05/19 02:27:36;;;;;;;10.23;1.60;;;;;;;13.36;nan;102309.69;5066190;28;20054;-83
2022/05/19 02:30:05;;;;;;;3.40;1.65;;;;;;;13.37;nan;102322.91;5082900;28;20028;-82
2022/05/19 02:32:31;;;;;;;5.65;1.63;;;;;;;13.32;nan;102308.50;5084324;28;20049;-82
2022/05/19 02:34:57;;;;;;;5.60;1.90;;;;;;;13.27;nan;102307.28;5087049;28;20107;-82
2022/05/19 02:37:23;;;;;;;2.58;1.63;;;;;;;13.25;nan;102313.94;5086099;28;20413;-82
2022/05/19 02:39:48;;;;;;;2.58;1.48;;;;;;;13.24;nan;102317.69;5087163;28;20584;-82
2022/05/19 02:42:14;;;;;;;7.22;1.40;;;;;;;13.30;nan;102311.44;5082606;28;20053;-82
2022/05/19 02:44:40;;;;;;;2.50;1.27;;;;;;;13.32;nan;102317.41;5078699;28;20058;-82
2022/05/19 02:47:06;;;;;;;2.55;1.33;;;;;;;13.33;nan;102313.66;5084670;28;20107;-82
2022/05/19 02:49:32;;;;;;;2.47;1.58;;;;;;;13.27;nan;102314.53;5079675;28;20453;-82
2022/05/19 02:51:57;;;;;;;3.08;1.73;;;;;;;13.23;nan;102313.38;5079888;28;20032;-82
2022/05/19 02:54:23;;;;;;;5.03;1.50;;;;;;;13.26;nan;102315.59;5086696;28;20107;-83
2022/05/19 02:56:48;;;;;;;2.58;1.77;;;;;;;13.27;nan;102309.16;5080347;28;20103;-83
2022/05/19 02:59:14;;;;;;;2.47;1.45;;;;;;;13.24;nan;102310.44;5086899;28;20559;-82
2022/05/19 03:01:39;;;;;;;3.90;1.38;;;;;;;13.20;nan;102316.50;5077575;28;20027;-82
2022/05/19 03:04:05;;;;;;;4.35;1.50;;;;;;;13.15;nan;102311.78;5077376;28;20641;-82
2022/05/19 03:06:30;;;;;;;5.20;1.55;;;;;;;13.19;nan;102312.19;5081533;28;20489;-83
2022/05/19 03:08:56;;;;;;;3.40;1.80;;;;;;;13.17;nan;102307.00;5089121;28;20479;-82
2022/05/19 03:11:22;;;;;;;2.40;1.52;;;;;;;13.13;nan;102308.50;5064995;28;20032;-83
2022/05/19 03:13:47;;;;;;;2.42;1.60;;;;;;;13.14;nan;102306.63;5087270;28;20111;-82
2022/05/19 03:16:13;;;;;;;4.63;1.67;;;;;;;13.20;nan;102311.13;5084178;28;20017;-83
2022/05/19 03:18:38;;;;;;;3.92;1.52;;;;;;;13.15;nan;102313.66;5087721;28;20024;-82
2022/05/19 03:21:04;;;;;;;3.55;1.52;;;;;;;13.10;nan;102314.31;5091589;28;20524;-84
2022/05/19 03:23:29;;;;;;;2.67;1.60;;;;;;;13.08;nan;102310.22;5069695;28;20514;-82
2022/05/19 03:25:55;;;;;;;6.45;1.80;;;;;;;13.09;nan;102306.47;5070820;28;20023;-83
2022/05/19 03:28:21;;;;;;;3.45;1.80;;;;;;;13.13;nan;102311.19;5084458;28;20054;-82
2022/05/19 03:30:46;;;;;;;6.00;1.80;;;;;;;13.12;nan;102308.72;5091315;28;20028;-82
2022/05/19 03:33:12;;;;;;;5.32;1.73;;;;;;;13.11;nan;102313.31;5088303;28;20036;-83
2022/05/19 03:35:38;;;;;;;3.72;1.60;;;;;;;13.12;nan;102314.94;5096106;28;20709;-82
2022/05/19 03:38:04;;;;;;;5.60;1.67;;;;;;;13.17;nan;102316.94;5087127;28;20031;-81
2022/05/19 03:40:30;;;;;;;4.18;1.80;;;;;;;13.18;nan;102319.44;5084631;28;20028;-82
2022/05/19 03:42:55;;;;;;;4.70;1.75;;;;;;;13.19;nan;102326.47;5093051;28;20023;-83
2022/05/19 03:45:21;;;;;;;6.10;1.77;;;;;;;13.27;nan;102319.94;5095104;28;20036;-83
2022/05/19 03:47:46;;;;;;;3.67;1.95;;;;;;;13.36;nan;102337.41;5087406;28;20036;-82
2022/05/19 03:50:12;;;;;;;2.50;1.77;;;;;;;13.36;nan;102332.03;5089054;28;20070;-82
2022/05/19 03:52:40;;;;;;;5.45;2.15;;;;;;;13.39;nan;102328.88;5085536;28;20109;-82
2022/05/19 03:55:06;;;;;;;9.75;2.08;;;;;;;13.42;nan;102330.28;5083918;28;20032;-83
2022/05/19 03:57:32;;;;;;;3.90;1.83;;;;;;;13.41;nan;102325.97;5085351;28;20443;-82
2022/05/19 03:59:57;;;;;;;3.05;1.70;;;;;;;13.50;nan;102322.72;5092874;28;20048;-83
2022/05/19 04:02:23;;;;;;;3.47;1.40;;;;;;;13.56;nan;102331.75;5092926;28;20019;-82
2022/05/19 04:04:48;;;;;;;8.00;1.80;;;;;;;13.59;nan;102331.28;5089521;28;20062;-83
2022/05/19 04:07:14;;;;;;;4.22;1.63;;;;;;;13.61;nan;102319.22;5090957;28;20032;-82
2022/05/19 04:09:39;;;;;;;3.22;1.98;;;;;;;13.66;nan;102315.06;5085773;28;20047;-82
2022/05/19 04:12:06;;;;;;;7.13;2.10;;;;;;;13.65;nan;102325.00;5095346;28;20074;-82
2022/05/19 04:14:31;;;;;;;1.60;1.40;;;;;;;13.74;nan;102315.53;5093571;28;20034;-82
2022/05/19 04:16:57;;;;;;;3.60;2.17;;;;;;;13.79;nan;102312.94;5091497;28;20020;-83
2022/05/19 04:19:23;;;;;;;3.45;1.60;;;;;;;13.82;nan;102314.34;5099931;28;20032;-83
2022/05/19 04:21:48;;;;;;;5.13;1.67;;;;;;;13.88;nan;102313.47;5092195;28;20031;-82
2022/05/19 04:24:14;;;;;;;4.25;1.80;;;;;;;13.93;nan;102315.44;5093379;28;20023;-82
2022/05/19 04:26:40;;;;;;;4.28;1.75;;;;;;;13.97;nan;102314.75;5091730;28;20039;-82
2022/05/19 04:29:05;;;;;;;6.55;1.60;;;;;;;14.01;nan;102315.13;5096681;28;20529;-82
2022/05/19 04:31:31;;;;;;;5.35;2.00;;;;;;;14.03;nan;102321.91;5086837;28;20104;-83
2022/05/19 04:33:57;;;;;;;7.30;1.92;;;;;;;14.04;nan;102320.03;5092123;28;20028;-82
2022/05/19 04:36:22;;;;;;;4.15;1.58;;;;;;;14.03;nan;102316.53;5091669;28;20099;-82
2022/05/19 04:38:48;;;;;;;4.00;1.95;;;;;;;14.07;nan;102312.31;5087861;28;20039;-83
2022/05/19 04:41:13;;;;;;;2.97;2.30;;;;;;;14.13;nan;102314.06;5089815;28;20081;-82
2022/05/19 04:43:39;;;;;;;1.60;1.38;;;;;;;14.19;nan;102312.31;5087106;28;20047;-82
2022/05/19 04:46:04;;;;;;;6.00;1.80;;;;;;;14.23;nan;102315.38;5097413;28;20016;-82
2022/05/19 04:48:30;;;;;;;3.85;2.10;;;;;;;14.32;nan;102322.84;5088914;28;20039;-83
2022/05/19 04:50:58;;;;;;;3.85;1.85;;;;;;;14.30;nan;102327.66;5090074;28;20031;-83
2022/05/19 04:53:25;;;;;;;7.75;1.80;;;;;;;14.29;nan;102314.41;5079048;28;20127;-82
2022/05/19 04:55:53;;;;;;;3.13;1.80;;;;;;;14.27;nan;102314.66;5090399;28;20031;-83
2022/05/19 04:58:19;;;;;;;3.90;1.92;;;;;;;14.29;nan;102320.63;5092869;28;20020;-82
2022/05/19 05:00:48;;;;;;;3.10;1.92;;;;;;;14.40;nan;102327.09;5092205;28;20048;-83
2022/05/19 05:03:14;;;;;;;2.97;1.80;;;;;;;14.45;nan;102324.53;5093793;28;20039;-83
2022/05/19 05:05:39;;;;;;;3.65;1.60;;;;;;;14.47;nan;102327.81;5086073;28;20398;-83
2022/05/19 05:08:05;;;;;;;5.35;2.20;;;;;;;14.48;nan;102318.66;5094091;28;20028;-83
2022/05/19 05:10:31;;;;;;;4.68;2.08;;;;;;;14.64;nan;102322.53;5086216;28;20024;-83
2022/05/19 05:12:56;;;;;;;4.20;2.10;;;;;;;14.74;nan;102320.06;5094930;28;20020;-83
2022/05/19 05:15:22;;;;;;;6.35;2.00;;;;;;;14.75;nan;102322.50;5088236;28;20090;-83
2022/05/19 05:17:48;;;;;;;5.40;2.00;;;;;;;14.84;nan;102317.56;5090678;28;20999;-83
2022/05/19 05:20:14;;;;;;;4.90;1.90;;;;;;;14.97;nan;102311.06;5085714;28;20028;-83
2022/05/19 05:22:40;;;;;;;3.78;2.00;;;;;;;15.05;nan;102318.78;5092168;28;20027;-83
2022/05/19 05:25:09;;;;;;;3.97;2.10;;;;;;;15.13;nan;102321.13;5090595;28;20020;-82
2022/05/19 05:27:35;;;;;;;7.00;2.45;;;;;;;15.17;nan;102324.97;5096825;28;20081;-83
2022/05/19 05:30:01;;;;;;;2.72;1.80;;;;;;;15.23;nan;102318.59;5094051;28;21384;-82
2022/05/19 05:32:26;;;;;;;4.53;2.35;;;;;;;15.25;nan;102313.78;5094916;28;20112;-84
2022/05/19 05:34:52;;;;;;;4.78;2.00;;;;;;;15.20;nan;102310.97;5084876;28;20031;-83
2022/05/19 05:37:17;;;;;;;5.15;2.58;;;;;;;15.25;nan;102313.78;5090066;28;20024;-82
2022/05/19 05:39:43;;;;;;;6.72;2.60;;;;;;;15.34;nan;102311.53;5083045;28;20019;-83
2022/05/19 05:42:09;;;;;;;4.28;2.58;;;;;;;15.35;nan;102302.34;5085485;28;20032;-83
2022/05/19 05:44:34;;;;;;;11.52;2.85;;;;;;;15.41;nan;102306.78;5083275;28;20388;-82
2022/05/19 05:47:00;;;;;;;6.22;2.50;;;;;;;15.52;nan;102300.50;5099086;28;20025;-83
2022/05/19 05:49:26;;;;;;;6.45;2.30;;;;;;;15.60;nan;102296.59;5085891;28;20394;-83
2022/05/19 05:51:52;;;;;;;6.18;2.25;;;;;;;15.73;nan;102293.59;5091598;28;20027;-83
2022/05/19 05:54:18;;;;;;;4.70;2.65;;;;;;;15.85;nan;102299.75;5090853;28;20020;-82
2022/05/19 05:56:43;;;;;;;3.72;2.20;;;;;;;15.97;nan;102311.28;5090026;28;20020;-83
2022/05/19 05:59:09;;;;;;;5.40;2.30;;;;;;;16.11;nan;102300.16;5066827;28;20032;-83
2022/05/19 06:01:35;;;;;;;4.85;2.30;;;;;;;16.21;nan;102297.59;5084060;28;20383;-83
2022/05/19 06:04:02;;;;;;;5.55;2.58;;;;;;;16.36;nan;102303.25;5082361;28;20032;-82
2022/05/19 06:06:28;;;;;;;5.63;2.58;;;;;;;16.41;nan;102310.59;5079687;28;20020;-81
2022/05/19 06:08:55;;;;;;;5.00;2.33;;;;;;;16.49;nan;102310.16;5083548;28;20123;-81
2022/05/19 06:11:20;;;;;;;4.20;2.65;;;;;;;16.53;nan;102308.63;5080962;28;20028;-81
2022/05/19 06:13:49;;;;;;;3.75;2.30;;;;;;;16.61;nan;102311.69;5090731;28;20049;-81
2022/05/19 06:16:14;;;;;;;5.60;2.35;;;;;;;16.67;nan;102304.50;5098123;28;20035;-81
2022/05/19 06:18:40;;;;;;;4.30;2.50;;;;;;;16.72;nan;102301.06;5087165;28;20040;-81
2022/05/19 06:21:06;;;;;;;13.57;2.95;;;;;;;16.75;nan;102306.78;5081967;28;20377;-82
2022/05/19 06:23:32;;;;;;;3.80;2.58;;;;;;;16.84;nan;102304.44;5085082;28;20021;-82
2022/05/19 06:25:58;;;;;;;4.80;2.40;;;;;;;16.91;nan;102299.66;5088622;28;20044;-82
2022/05/19 06:28:24;;;;;;;4.93;2.58;;;;;;;17.00;nan;102305.44;5086607;28;20025;-82
2022/05/19 06:30:50;;;;;;;6.30;2.83;;;;;;;17.11;nan;102308.03;5081657;28;20034;-81
2022/05/19 06:33:18;;;;;;;4.82;2.58;;;;;;;17.26;nan;102307.38;5086056;28;20028;-82
2022/05/19 06:35:44;;;;;;;3.08;2.45;;;;;;;17.35;nan;102307.72;5081968;28;20032;-82
2022/05/19 06:38:10;;;;;;;5.05;2.70;;;;;;;17.51;nan;102312.22;5085966;28;20497;-82
2022/05/19 06:40:36;;;;;;;6.55;2.72;;;;;;;17.56;nan;102303.31;5086977;28;20039;-81
2022/05/19 06:43:06;;;;;;;5.55;2.78;;;;;;;17.61;nan;102304.19;5084962;28;20625;-82
2022/05/19 06:45:32;;;;;;;6.70;2.63;;;;;;;17.66;nan;102304.22;5067332;28;20024;-82
2022/05/19 06:47:58;;;;;;;4.88;2.60;;;;;;;17.76;nan;102306.22;5088638;28;20028;-82
2022/05/19 06:50:23;;;;;;;5.90;2.80;;;;;;;17.88;nan;102300.63;5086335;28;20389;-81
2022/05/19 06:52:52;;;;;;;7.28;2.92;;;;;;;17.95;nan;102298.50;5086016;28;20023;-81
2022/05/19 06:55:20;;;;;;;4.82;2.85;;;;;;;18.04;nan;102280.69;5077252;28;20016;-81
2022/05/19 06:57:45;;;;;;;7.00;2.40;;;;;;;18.06;nan;102283.97;5087770;28;20031;-81
2022/05/19 07:00:17;;;;;;;4.25;2.97;;;;;;;18.23;nan;102276.47;5087676;28;20284;-84
2022/05/19 07:02:45;;;;;;;6.13;2.60;;;;;;;18.36;nan;102278.75;5078999;28;20019;-83
2022/05/19 07:05:12;;;;;;;3.85;2.83;;;;;;;18.48;nan;102269.56;5081905;28;20039;-82
2022/05/19 07:07:37;;;;;;;4.18;2.53;;;;;;;18.56;nan;102266.34;5091521;28;20033;-82
2022/05/19 07:10:03;;;;;;;3.80;2.45;;;;;;;18.70;nan;102279.22;5086041;28;20097;-82
2022/05/19 07:12:29;;;;;;;6.43;3.00;;;;;;;18.81;nan;102268.38;5081450;28;20031;-82
2022/05/19 07:14:55;;;;;;;4.93;2.85;;;;;;;18.92;nan;102259.19;5065556;28;20028;-82
2022/05/19 07:17:21;;;;;;;5.20;2.90;;;;;;;18.99;nan;102265.97;5067182;28;20111;-82
2022/05/19 07:22:34;;;;;;;2.90;2.50;;;;;;;19.24;nan;102264.41;5088180;28;20098;-82
2022/05/19 07:25:01;;;;;;;5.78;2.75;;;;;;;19.32;nan;102259.25;5095109;28;20308;-82
2022/05/19 07:27:27;;;;;;;9.60;3.08;;;;;;;19.40;nan;102252.50;5091320;28;20111;-82
2022/05/19 07:29:53;;;;;;;4.18;2.95;;;;;;;19.54;nan;102250.06;5087063;28;20047;-82
2022/05/19 07:32:20;;;;;;;7.35;3.08;;;;;;;19.68;nan;102247.59;5095183;28;20030;-83
2022/05/19 07:34:45;;;;;;;4.72;2.25;;;;;;;19.76;nan;102249.81;5088054;28;20027;-82
2022/05/19 07:37:11;;;;;;;5.97;2.90;;;;;;;19.89;nan;102241.88;5086578;28;20012;-82
2022/05/19 07:39:37;;;;;;;6.05;2.67;;;;;;;20.04;nan;102243.75;5086604;28;20032;-82
2022/05/19 07:42:08;;;;;;;9.55;2.95;;;;;;;20.13;nan;102235.88;5093967;28;20043;-82
2022/05/19 07:44:34;;;;;;;6.25;3.10;;;;;;;20.20;nan;102233.66;5086728;28;20031;-82
2022/05/19 07:47:00;;;;;;;7.60;3.00;;;;;;;20.33;nan;102230.34;5093864;28;20083;-81
2022/05/19 07:49:25;;;;;;;5.57;3.10;;;;;;;20.47;nan;102236.06;5093138;28;20020;-81
2022/05/19 07:51:51;;;;;;;4.05;3.08;;;;;;;20.59;nan;102233.00;5091634;28;20028;-81
2022/05/19 07:54:20;;;;;;;5.03;2.83;;;;;;;20.74;nan;102231.00;5087729;28;20029;-81
2022/05/19 07:56:46;;;;;;;5.60;3.20;;;;;;;20.86;nan;102232.59;5085548;28;20022;-81
2022/05/19 07:59:13;;;;;;;5.97;2.83;;;;;;;20.94;nan;102234.72;5091512;28;20510;-82
2022/05/19 08:01:40;;;;;;;4.18;2.97;;;;;;;21.01;nan;102229.78;5089392;28;20032;-82
2022/05/19 08:04:07;;;;;;;3.67;2.60;;;;;;;21.13;nan;102222.88;5090209;28;20040;-82
2022/05/19 08:06:33;;;;;;;4.07;2.70;;;;;;;21.31;nan;102218.69;5083678;28;20539;-82
2022/05/19 08:09:00;;;;;;;3.55;2.60;;;;;;;21.34;nan;102225.47;5084244;28;20029;-82
2022/05/19 08:11:27;;;;;;;5.30;2.75;;;;;;;21.46;nan;102215.03;5082692;28;20061;-83
2022/05/19 08:16:38;;;;;;;4.57;3.10;;;;;;;21.60;nan;102218.72;5085114;28;20035;-82
2022/05/19 08:19:03;;;;;;;4.63;2.67;;;;;;;21.70;nan;102215.06;5091787;28;20024;-82
2022/05/19 08:21:30;;;;;;;6.30;2.85;;;;;;;21.81;nan;102213.88;5089198;28;20050;-82
2022/05/19 08:23:56;;;;;;;5.72;3.20;;;;;;;21.93;nan;102208.03;5085539;28;20026;-82
2022/05/19 08:26:21;;;;;;;7.93;3.30;;;;;;;21.98;nan;102211.50;5088023;28;20515;-82
2022/05/19 08:28:48;;;;;;;7.75;3.63;;;;;;;22.09;nan;102223.19;5086108;28;20028;-82
2022/05/19 08:31:18;;;;;;;4.35;3.15;;;;;;;22.21;nan;102212.66;5085716;28;20031;-82
2022/05/19 08:33:46;;;;;;;3.80;2.83;;;;;;;22.21;nan;102215.38;5078619;28;20043;-81
2022/05/19 08:36:12;;;;;;;4.43;2.85;;;;;;;22.29;nan;102205.75;5087210;28;20028;-83
2022/05/19 08:38:39;;;;;;;3.75;2.60;;;;;;;22.39;nan;102210.25;5081628;28;20053;-82
2022/05/19 08:41:14;;;;;;;4.70;2.70;;;;;;;22.46;nan;102210.72;5096028;28;20052;-83
2022/05/19 08:44:05;;;;;;;3.92;3.20;;;;;;;22.53;nan;102208.44;5096016;28;20043;-82
2022/05/19 08:46:36;;;;;;;5.10;2.97;;;;;;;22.62;nan;102214.84;5086809;28;20036;-82
2022/05/19 08:49:06;;;;;;;6.30;3.60;;;;;;;22.68;nan;102218.34;5091423;28;20123;-82
2022/05/19 08:51:39;;;;;;;4.68;2.78;;;;;;;22.70;nan;102210.69;5085165;28;20024;-82
2022/05/19 08:54:08;;;;;;;6.28;3.20;;;;;;;22.86;nan;102203.91;5091549;28;20028;-83
2022/05/19 08:56:40;;;;;;;5.55;3.13;;;;;;;22.96;nan;102201.03;5090998;28;20105;-83
2022/05/19 08:59:39;;;;;;;5.45;2.92;;;;;;;23.05;nan;102199.25;5090459;28;20057;-82
2022/05/19 09:02:15;;;;;;;5.32;2.83;;;;;;;23.21;nan;102189.69;5081583;28;20363;-82
2022/05/19 09:05:16;;;;;;;4.13;2.90;;;;;;;23.30;nan;102191.75;5086061;28;20626;-82
2022/05/19 09:08:05;;;;;;;4.40;2.92;;;;;;;23.39;nan;102184.50;5088192;28;20146;-82
2022/05/19 09:11:12;;;;;;;7.18;3.42;;;;;;;23.55;nan;102180.38;5089416;28;20119;-83
2022/05/19 09:13:51;;;;;;;5.70;3.40;;;;;;;23.73;nan;102176.78;5080156;28;20028;-83
2022/05/19 09:16:42;;;;;;;5.15;3.10;;;;;;;23.86;nan;102171.63;5087656;28;20033;-82
2022/05/19 09:19:10;;;;;;;6.10;3.53;;;;;;;23.99;nan;102174.38;5088817;28;20021;-82
2022/05/19 09:21:38;;;;;;;5.90;3.42;;;;;;;24.04;nan;102174.25;5086006;28;20172;-83
2022/05/19 09:24:05;;;;;;;5.68;3.10;;;;;;;24.11;nan;102179.34;5082188;28;20028;-83
2022/05/19 09:26:53;;;;;;;3.72;2.97;;;;;;;24.03;nan;102167.16;5091454;28;20020;-82
2022/05/19 09:29:29;;;;;;;11.38;3.55;;;;;;;24.06;nan;102172.03;5093367;28;20035;-83
2022/05/19 09:32:13;;;;;;;3.35;3.00;;;;;;;24.17;nan;102167.16;5091746;28;20025;-83
2022/05/19 09:34:43;;;;;;;6.03;3.33;;;;;;;24.25;nan;102160.16;5087817;28;20032;-83
2022/05/19 09:37:19;;;;;;;12.80;3.80;;;;;;;24.21;nan;102170.09;5087052;28;20050;-82
2022/05/19 09:39:59;;;;;;;6.65;3.25;;;;;;;24.37;nan;102161.28;5083641;28;20024;-82
2022/05/19 09:42:36;;;;;;;7.32;3.08;;;;;;;24.45;nan;102161.69;5086495;28;20024;-83
2022/05/19 09:45:03;;;;;;;5.15;3.20;;;;;;;24.59;nan;102162.44;5085103;28;20108;-83
2022/05/19 09:47:33;;;;;;;7.75;3.55;;;;;;;24.67;nan;102161.72;5089164;28;20132;-84
2022/05/19 09:50:16;;;;;;;5.53;3.30;;;;;;;24.67;nan;102158.97;5076708;28;20027;-83
2022/05/19 09:52:43;;;;;;;6.38;3.10;;;;;;;24.71;nan;102160.78;5079933;28;20038;-82
2022/05/19 09:55:12;;;;;;;7.85;3.20;;;;;;;24.84;nan;102163.81;5093198;28;20027;-80
2022/05/19 09:57:51;;;;;;;4.18;2.90;;;;;;;24.89;nan;102156.25;5098808;28;20020;-80
2022/05/19 10:00:57;;;;;;;5.53;2.97;;;;;;;24.95;nan;102160.47;5089168;28;20048;-79
2022/05/19 10:03:35;;;;;;;4.07;2.80;;;;;;;25.05;nan;102159.47;5071034;28;20943;-79
2022/05/19 10:06:14;;;;;;;4.43;3.08;;;;;;;25.13;nan;102155.16;5093243;28;20092;-80
2022/05/19 10:08:43;;;;;;;3.55;2.88;;;;;;;25.18;nan;102157.78;5087487;28;20027;-80
2022/05/19 10:11:14;;;;;;;3.42;2.97;;;;;;;25.18;nan;102152.31;5089352;28;20098;-81
2022/05/19 10:13:45;;;;;;;5.93;3.08;;;;;;;25.23;nan;102142.00;5076556;28;20061;-81
2022/05/19 10:16:26;;;;;;;4.75;2.83;;;;;;;25.31;nan;102140.44;5085291;28;20099;-81
2022/05/19 10:19:13;;;;;;;5.00;3.42;;;;;;;25.35;nan;102141.44;5080455;28;20024;-81
2022/05/19 10:21:51;;;;;;;5.05;2.90;;;;;;;25.47;nan;102138.91;5075270;28;20035;-81
2022/05/19 10:24:52;;;;;;;5.97;3.25;;;;;;;25.60;nan;102142.69;5086529;28;20028;-81
2022/05/19 10:33:22;;;;;;;7.90;2.95;;;;;;;26.08;nan;102126.25;5084115;28;20575;-81
2022/05/19 10:36:16;;;;;;;4.78;2.95;;;;;;;26.15;nan;102121.09;5081683;28;20023;-82
2022/05/19 10:38:48;;;;;;;5.55;2.72;;;;;;;26.10;nan;102124.00;5080637;28;20713;-83
2022/05/19 10:41:47;;;;;;;4.28;2.80;;;;;;;26.11;nan;102100.88;5087005;28;20235;-81
2022/05/19 10:44:18;;;;;;;5.13;2.70;;;;;;;26.18;nan;102098.47;5080552;28;20102;-81
2022/05/19 10:46:59;;;;;;;3.75;2.72;;;;;;;26.29;nan;102089.91;5083269;28;20732;-82
2022/05/19 10:50:06;;;;;;;5.15;2.90;;;;;;;26.27;nan;102089.44;5079193;28;20035;-82
2022/05/19 10:52:53;;;;;;;7.05;3.38;;;;;;;26.25;nan;102084.25;5017693;28;20408;-82
2022/05/19 10:55:32;;;;;;;9.65;3.17;;;;;;;26.27;nan;102081.19;5077893;28;20587;-81
2022/05/19 10:58:06;;;;;;;7.57;2.67;;;;;;;26.32;nan;102070.03;5089141;28;20524;-82
2022/05/19 11:00:35;;;;;;;;;;;;;;;26.40;nan;102067.34;5093970;28;20019;-82
2022/05/19 11:03:38;;;;;;;3.33;2.42;;;;;;;26.56;nan;102058.56;5087161;28;19916;-81
2022/05/19 11:06:10;;;;;;;3.35;2.65;;;;;;;26.70;nan;102054.53;5099023;28;20032;-83
2022/05/19 11:09:00;;;;;;;6.25;2.85;;;;;;;26.82;nan;102056.63;5089273;28;20528;-82
2022/05/19 11:12:01;;;;;;;10.73;3.03;;;;;;;27.09;nan;102058.19;5088785;28;20028;-82
2022/05/19 11:14:34;;;;;;;6.30;2.95;;;;;;;27.27;nan;102051.47;5048976;28;20056;-82
2022/05/19 11:17:07;;;;;;;4.13;2.92;;;;;;;27.27;nan;102048.72;5080529;28;20024;-82
2022/05/19 11:19:41;;;;;;;2.75;2.50;;;;;;;27.40;nan;102047.72;5085903;28;20032;-83
2022/05/19 11:22:16;;;;;;;9.40;2.83;;;;;;;27.37;nan;102040.13;5083265;28;20031;-83
2022/05/19 11:28:13;;;;;;;3.25;2.60;;;;;;;27.45;nan;102029.38;5083124;28;20067;-82
2022/05/19 11:30:47;;;;;;;7.82;2.60;;;;;;;27.55;nan;102015.25;5040678;28;20643;-82
2022/05/19 11:33:18;;;;;;;6.65;2.90;;;;;;;27.68;nan;102017.81;5085058;28;20028;-83
2022/05/19 11:35:50;;;;;;;8.60;3.35;;;;;;;27.82;nan;102020.28;5084775;28;20584;-82
2022/05/19 11:38:28;;;;;;;4.63;2.88;;;;;;;27.90;nan;102013.91;5095725;28;20024;-83
2022/05/19 11:41:15;;;;;;;3.67;2.50;;;;;;;28.04;nan;102010.91;5084164;28;20044;-82
2022/05/19 11:44:00;;;;;;;5.55;3.10;;;;;;;28.12;nan;102017.47;5079257;28;20111;-84
2022/05/19 11:46:31;;;;;;;3.58;2.63;;;;;;;28.17;nan;102006.25;5073326;28;20036;-83
2022/05/19 11:55:45;;;;;;;7.10;3.10;;;;;;;28.56;nan;101996.69;5086472;28;20035;-82
2022/05/19 11:58:20;;;;;;;4.47;2.80;;;;;;;28.70;nan;101982.56;5081733;28;20050;-82
2022/05/19 12:01:11;;;;;;;6.35;2.60;;;;;;;28.96;nan;101985.88;5081665;28;20070;-83
2022/05/19 12:03:59;;;;;;;5.90;2.90;;;;;;;29.14;nan;101995.56;5080610;28;20060;-84
2022/05/19 12:06:31;;;;;;;4.20;2.80;;;;;;;29.12;nan;101992.34;5085438;28;20108;-84
2022/05/19 12:09:07;;;;;;;9.20;2.83;;;;;;;29.15;nan;101997.16;5103585;28;20107;-86
2022/05/19 12:11:45;;;;;;;5.40;2.80;;;;;;;29.15;nan;101991.63;5089242;28;20065;-86
2022/05/19 12:14:13;;;;;;;3.17;2.88;;;;;;;29.21;nan;101994.97;5080586;28;20031;-86
2022/05/19 12:16:55;;;;;;;4.15;3.00;;;;;;;29.37;nan;101982.09;5084727;28;20030;-84
2022/05/19 12:19:40;;;;;;;2.50;2.30;;;;;;;29.53;nan;101982.22;5091845;28;20031;-84
2022/05/19 12:22:17;;;;;;;6.57;2.95;;;;;;;29.50;nan;101990.41;5083030;28;20063;-86